Time;durP1;ratioP1;P1;durP2;ratioP2;P2;SDS_P1;SDS_P2;PMS_P1;PMS_P2;Temp;Humidity;BMP_temperature;BMP_pressure;BME280_temperature;BME280_humidity;BME280_pressure;Samples;Min_cycle;Max_cycle;Signal;HPM_P1;HPM_P2
2023/08/15 00:02:00;;;;;;;9.70;4.50;;;23.60;99.90;;;;;;5059660;28;20021;-72
2023/08/15 00:04:26;;;;;;;6.65;4.15;;;23.70;99.90;;;;;;5062301;28;20028;-72
2023/08/15 00:06:51;;;;;;;13.77;5.47;;;23.60;99.90;;;;;;5059936;28;20040;-72
2023/08/15 00:09:17;;;;;;;11.38;4.45;;;23.60;99.90;;;;;;5062344;28;20056;-72
2023/08/15 00:11:42;;;;;;;10.25;3.97;;;23.60;99.90;;;;;;5059616;28;20078;-73
2023/08/15 00:14:09;;;;;;;9.65;4.57;;;23.60;99.90;;;;;;5062253;28;20091;-71
2023/08/15 00:16:35;;;;;;;10.45;5.57;;;23.60;99.90;;;;;;5057562;28;20033;-72
2023/08/15 00:19:02;;;;;;;13.77;6.57;;;23.60;99.90;;;;;;5059453;28;20397;-71
2023/08/15 00:21:28;;;;;;;11.77;4.95;;;23.60;99.90;;;;;;5058334;28;20086;-72
2023/08/15 00:23:54;;;;;;;10.52;4.70;;;23.70;99.90;;;;;;5060369;28;20053;-71
2023/08/15 00:26:19;;;;;;;10.38;4.28;;;23.70;99.90;;;;;;5058276;28;20558;-71
2023/08/15 00:28:45;;;;;;;22.58;5.95;;;23.70;99.90;;;;;;5059803;28;20082;-72
2023/08/15 00:31:10;;;;;;;9.45;4.32;;;23.70;99.90;;;;;;5058235;28;20074;-72
2023/08/15 00:33:36;;;;;;;16.10;4.60;;;23.70;99.90;;;;;;5063078;28;20039;-72
2023/08/15 00:36:04;;;;;;;9.60;4.70;;;23.80;99.90;;;;;;5072212;28;20028;-72
2023/08/15 00:38:29;;;;;;;12.88;4.53;;;23.80;99.90;;;;;;5067377;28;20040;-72
2023/08/15 00:40:55;;;;;;;15.75;4.55;;;23.70;99.90;;;;;;5063835;28;20409;-72
2023/08/15 00:43:20;;;;;;;9.88;4.40;;;23.70;99.90;;;;;;5069061;28;20033;-72
2023/08/15 00:45:46;;;;;;;10.18;4.63;;;23.80;99.90;;;;;;5072618;28;20485;-72
2023/08/15 00:48:12;;;;;;;12.10;4.57;;;23.80;99.90;;;;;;5069158;28;20021;-72
2023/08/15 00:50:40;;;;;;;10.98;5.03;;;23.80;99.90;;;;;;5072565;28;20024;-72
2023/08/15 00:53:07;;;;;;;10.23;5.00;;;23.80;99.90;;;;;;5063559;28;20108;-71
2023/08/15 00:55:33;;;;;;;8.15;4.22;;;23.80;99.90;;;;;;5066680;28;20020;-72
2023/08/15 00:57:59;;;;;;;7.13;4.03;;;23.80;99.90;;;;;;5063838;28;20029;-71
2023/08/15 01:00:26;;;;;;;9.60;4.68;;;23.80;99.90;;;;;;5066816;28;20408;-71
2023/08/15 01:02:52;;;;;;;8.40;3.90;;;23.70;99.90;;;;;;5063852;28;20029;-71
2023/08/15 01:05:20;;;;;;;9.63;4.00;;;23.70;99.90;;;;;;5064342;28;20024;-71
2023/08/15 01:07:45;;;;;;;14.02;3.83;;;23.60;99.90;;;;;;5067271;28;20024;-71
2023/08/15 01:10:11;;;;;;;7.00;3.75;;;23.50;99.90;;;;;;5073126;28;20426;-72
2023/08/15 01:12:52;;;;;;;7.53;3.63;;;23.50;99.90;;;;;;5073302;28;20025;-71
2023/08/15 01:15:26;;;;;;;8.70;3.35;;;23.40;99.90;;;;;;5061029;28;20025;-72
2023/08/15 01:17:58;;;;;;;7.60;3.40;;;23.40;99.90;;;;;;5050182;28;20472;-73
2023/08/15 01:20:30;;;;;;;11.65;4.25;;;23.30;99.90;;;;;;5064648;28;20075;-72
2023/08/15 01:23:00;;;;;;;9.88;4.18;;;23.20;99.90;;;;;;5059191;28;20033;-72
2023/08/15 01:25:26;;;;;;;6.93;3.20;;;23.20;99.90;;;;;;5065706;28;20029;-73
2023/08/15 01:27:52;;;;;;;11.38;4.10;;;23.10;99.90;;;;;;5071336;28;20102;-73
2023/08/15 01:30:22;;;;;;;6.22;3.10;;;23.10;99.90;;;;;;5070224;28;20025;-73
2023/08/15 01:33:05;;;;;;;8.02;3.63;;;23.00;99.90;;;;;;5073052;28;20025;-71
2023/08/15 01:35:33;;;;;;;9.52;4.10;;;23.00;99.90;;;;;;5066588;28;20032;-72
2023/08/15 01:38:10;;;;;;;10.38;4.05;;;23.00;99.90;;;;;;5067870;28;20025;-72
2023/08/15 01:40:37;;;;;;;9.57;3.38;;;22.90;99.90;;;;;;5064471;28;20128;-72
2023/08/15 01:43:05;;;;;;;9.05;3.70;;;22.90;99.90;;;;;;5066965;28;20029;-72
2023/08/15 01:45:32;;;;;;;10.73;3.40;;;22.90;99.90;;;;;;5065773;28;20027;-72
2023/08/15 01:47:58;;;;;;;11.18;3.65;;;22.80;99.90;;;;;;5067430;28;20029;-71
2023/08/15 01:50:23;;;;;;;12.13;3.70;;;22.90;99.90;;;;;;5067062;28;20023;-72
2023/08/15 01:52:49;;;;;;;8.90;3.85;;;22.80;99.90;;;;;;5063562;28;20036;-72
2023/08/15 01:55:15;;;;;;;8.77;3.97;;;22.80;99.90;;;;;;5059459;28;20428;-73
2023/08/15 01:57:40;;;;;;;8.45;3.40;;;22.80;99.90;;;;;;5058256;28;20424;-71
2023/08/15 02:00:07;;;;;;;9.00;3.92;;;22.80;99.90;;;;;;5059443;28;20025;-71
2023/08/15 02:02:32;;;;;;;13.93;3.90;;;22.80;99.90;;;;;;5058410;28;20034;-72
2023/08/15 02:05:01;;;;;;;8.95;3.80;;;22.70;99.90;;;;;;5058016;28;20029;-72
2023/08/15 02:07:27;;;;;;;11.63;4.60;;;22.70;99.90;;;;;;5058016;28;20040;-72
2023/08/15 02:09:53;;;;;;;9.02;3.60;;;22.70;99.90;;;;;;5059107;28;20029;-71
2023/08/15 02:12:19;;;;;;;12.35;4.05;;;22.70;99.90;;;;;;5061366;28;20047;-71
2023/08/15 02:14:44;;;;;;;11.15;4.07;;;22.70;99.90;;;;;;5068988;28;20041;-71
2023/08/15 02:17:10;;;;;;;8.30;3.50;;;22.80;99.90;;;;;;5072083;28;20559;-71
2023/08/15 02:19:36;;;;;;;9.20;3.72;;;22.80;99.90;;;;;;5076651;28;20064;-71
2023/08/15 02:22:01;;;;;;;9.52;3.42;;;22.70;99.90;;;;;;5064855;28;20567;-70
2023/08/15 02:24:28;;;;;;;9.43;3.85;;;22.70;99.90;;;;;;5059609;28;20521;-72
2023/08/15 02:26:54;;;;;;;6.75;3.50;;;22.70;99.90;;;;;;5051608;28;20017;-71
2023/08/15 02:29:19;;;;;;;10.13;3.78;;;22.70;99.90;;;;;;5069253;28;20122;-71
2023/08/15 02:31:47;;;;;;;6.72;3.58;;;22.70;99.90;;;;;;5063016;28;20052;-71
2023/08/15 02:34:15;;;;;;;8.35;3.40;;;22.60;99.90;;;;;;5076098;28;20028;-72
2023/08/15 02:36:41;;;;;;;12.05;3.90;;;22.50;99.90;;;;;;5075292;28;20027;-71
2023/08/15 02:39:07;;;;;;;9.10;3.38;;;22.50;99.90;;;;;;5076147;28;20040;-71
2023/08/15 02:41:32;;;;;;;7.57;3.50;;;22.50;99.90;;;;;;5075075;28;20037;-72
2023/08/15 02:43:58;;;;;;;9.75;3.38;;;22.50;99.90;;;;;;5077066;28;20036;-71
2023/08/15 02:46:25;;;;;;;12.52;3.47;;;22.40;99.90;;;;;;5073048;28;20078;-71
2023/08/15 02:48:51;;;;;;;7.20;3.08;;;22.50;99.90;;;;;;5065345;28;20485;-71
2023/08/15 02:51:16;;;;;;;11.63;3.67;;;22.40;99.90;;;;;;5067083;28;20024;-72
2023/08/15 02:53:42;;;;;;;10.88;4.15;;;22.40;99.90;;;;;;5055830;28;20104;-71
2023/08/15 02:56:07;;;;;;;12.35;3.92;;;22.40;99.90;;;;;;5056026;28;20033;-71
2023/08/15 02:58:33;;;;;;;13.95;3.28;;;22.40;99.90;;;;;;5065149;28;20033;-71
2023/08/15 03:00:59;;;;;;;12.40;3.50;;;22.40;99.90;;;;;;5066821;28;20033;-72
2023/08/15 03:03:25;;;;;;;10.40;3.80;;;22.40;99.90;;;;;;5065792;28;20037;-73
2023/08/15 03:05:51;;;;;;;8.32;3.40;;;22.40;99.90;;;;;;5066779;28;20134;-71
2023/08/15 03:08:16;;;;;;;11.65;3.60;;;22.30;99.90;;;;;;5064505;28;20029;-72
2023/08/15 03:10:42;;;;;;;7.95;3.70;;;22.40;99.90;;;;;;5067860;28;20020;-72
2023/08/15 03:13:08;;;;;;;8.57;3.70;;;22.40;99.90;;;;;;5063739;28;20083;-71
2023/08/15 03:15:35;;;;;;;7.05;3.28;;;22.40;99.90;;;;;;5068044;28;20035;-71
2023/08/15 03:18:01;;;;;;;8.55;3.35;;;22.40;99.90;;;;;;5065280;28;20033;-71
2023/08/15 03:20:26;;;;;;;12.82;4.97;;;22.40;99.90;;;;;;5062467;28;20603;-71
2023/08/15 03:22:52;;;;;;;8.75;3.75;;;22.40;99.90;;;;;;5057786;28;20063;-71
2023/08/15 03:25:18;;;;;;;9.70;3.97;;;22.30;99.90;;;;;;5066591;28;20032;-72
2023/08/15 03:27:43;;;;;;;8.20;3.15;;;22.30;99.90;;;;;;5063872;28;20130;-72
2023/08/15 03:30:09;;;;;;;11.70;4.22;;;22.30;99.90;;;;;;5067962;28;20078;-72
2023/08/15 03:32:35;;;;;;;13.35;3.35;;;22.30;99.90;;;;;;5064090;28;20074;-72
2023/08/15 03:35:01;;;;;;;8.35;3.67;;;22.30;99.90;;;;;;5068490;28;20078;-73
2023/08/15 03:37:26;;;;;;;10.05;3.63;;;22.30;99.90;;;;;;5064199;28;20096;-71
2023/08/15 03:39:52;;;;;;;9.20;3.13;;;22.30;99.90;;;;;;5068014;28;20032;-72
2023/08/15 03:42:17;;;;;;;16.27;4.40;;;22.30;99.90;;;;;;5063555;28;20017;-72
2023/08/15 03:44:43;;;;;;;8.30;3.17;;;22.20;99.90;;;;;;5066941;28;20032;-72
2023/08/15 03:47:09;;;;;;;6.55;3.05;;;22.20;99.90;;;;;;5063345;28;20028;-72
2023/08/15 03:49:34;;;;;;;9.82;2.78;;;22.20;99.90;;;;;;5068877;28;20032;-72
2023/08/15 03:52:00;;;;;;;6.35;3.40;;;22.20;99.90;;;;;;5063148;28;20055;-72
2023/08/15 03:54:25;;;;;;;9.02;2.88;;;22.10;99.90;;;;;;5066905;28;20036;-71
2023/08/15 03:56:51;;;;;;;8.65;3.55;;;22.10;99.90;;;;;;5061910;28;20021;-72
2023/08/15 03:59:18;;;;;;;10.50;2.70;;;22.00;99.90;;;;;;5067300;28;20032;-72
2023/08/15 04:01:43;;;;;;;13.18;2.60;;;22.00;99.90;;;;;;5062258;28;20017;-72
2023/08/15 04:04:10;;;;;;;10.88;3.03;;;22.00;99.90;;;;;;5048669;28;20032;-72
2023/08/15 04:06:35;;;;;;;7.13;2.83;;;22.00;99.90;;;;;;5062340;28;20504;-72
2023/08/15 04:09:01;;;;;;;6.95;3.05;;;22.00;99.90;;;;;;5067145;28;20463;-72
2023/08/15 04:11:27;;;;;;;10.55;3.20;;;22.00;99.90;;;;;;5053252;28;20091;-72
2023/08/15 04:13:52;;;;;;;7.30;2.60;;;22.00;99.90;;;;;;5065744;28;20024;-72
2023/08/15 04:16:18;;;;;;;11.38;2.85;;;22.00;99.90;;;;;;5062207;28;20033;-72
2023/08/15 04:18:44;;;;;;;9.52;2.95;;;21.90;99.90;;;;;;5066787;28;20029;-72
2023/08/15 04:21:12;;;;;;;5.88;2.88;;;21.90;99.90;;;;;;5050249;28;20029;-72
2023/08/15 04:23:38;;;;;;;6.43;2.80;;;21.90;99.90;;;;;;5047885;28;20048;-72
2023/08/15 04:26:03;;;;;;;10.35;3.20;;;21.90;99.90;;;;;;5060706;28;20017;-72
2023/08/15 04:28:29;;;;;;;9.48;2.65;;;21.90;99.90;;;;;;5063595;28;20025;-72
2023/08/15 04:30:55;;;;;;;8.77;2.63;;;21.90;99.90;;;;;;5060703;28;20036;-72
2023/08/15 04:33:21;;;;;;;7.78;2.55;;;21.90;99.90;;;;;;5065565;28;20032;-72
2023/08/15 04:35:46;;;;;;;7.25;2.78;;;21.90;99.90;;;;;;5059335;28;20106;-72
2023/08/15 04:38:14;;;;;;;8.00;3.10;;;21.90;99.90;;;;;;5065688;28;20024;-71
2023/08/15 04:40:40;;;;;;;9.63;2.97;;;21.90;99.90;;;;;;5060603;28;20091;-72
2023/08/15 04:43:07;;;;;;;9.85;3.17;;;21.80;99.90;;;;;;5063455;28;20024;-72
2023/08/15 04:45:33;;;;;;;12.43;3.10;;;21.80;99.90;;;;;;5060633;28;20021;-72
2023/08/15 04:47:59;;;;;;;9.75;3.15;;;21.80;99.90;;;;;;5065558;28;20379;-72
2023/08/15 04:50:25;;;;;;;7.28;3.10;;;21.80;99.90;;;;;;5060811;28;20021;-72
2023/08/15 04:52:50;;;;;;;7.18;2.20;;;21.80;99.90;;;;;;5065683;28;20021;-72
2023/08/15 04:55:16;;;;;;;4.50;2.20;;;21.70;99.90;;;;;;5061028;28;20114;-72
2023/08/15 04:57:42;;;;;;;7.53;2.72;;;21.70;99.90;;;;;;5068011;28;20700;-71
2023/08/15 05:00:11;;;;;;;8.57;2.30;;;21.70;99.90;;;;;;5062150;28;20039;-72
2023/08/15 05:02:38;;;;;;;9.07;2.93;;;21.70;99.90;;;;;;5069908;28;20435;-72
2023/08/15 05:05:10;;;;;;;8.88;2.85;;;21.70;99.90;;;;;;5065900;28;20024;-72
2023/08/15 05:07:37;;;;;;;8.63;2.67;;;21.70;99.90;;;;;;5057557;28;20017;-72
2023/08/15 05:10:03;;;;;;;4.50;2.33;;;21.70;99.90;;;;;;5057018;28;20035;-72
2023/08/15 05:12:28;;;;;;;9.40;3.65;;;21.70;99.90;;;;;;5058967;28;20017;-72
2023/08/15 05:14:54;;;;;;;7.78;2.35;;;21.70;99.90;;;;;;5073449;28;20040;-72
2023/08/15 05:17:20;;;;;;;6.05;2.60;;;21.60;99.90;;;;;;5072196;28;20036;-72
2023/08/15 05:19:45;;;;;;;7.70;3.00;;;21.60;99.90;;;;;;5073917;28;20033;-72
2023/08/15 05:22:11;;;;;;;6.45;2.45;;;21.50;99.90;;;;;;5066873;28;20381;-72
2023/08/15 05:24:37;;;;;;;6.90;2.55;;;21.50;99.90;;;;;;5073636;28;20517;-72
2023/08/15 05:27:02;;;;;;;5.80;2.42;;;21.50;99.90;;;;;;5070831;28;20055;-72
2023/08/15 05:29:28;;;;;;;7.57;2.90;;;21.40;99.90;;;;;;5074239;28;20101;-72
2023/08/15 05:31:54;;;;;;;6.55;2.33;;;21.40;99.90;;;;;;5056386;28;20096;-73
2023/08/15 05:34:20;;;;;;;7.75;2.38;;;21.40;99.90;;;;;;5054175;28;20071;-73
2023/08/15 05:36:46;;;;;;;6.75;2.72;;;21.40;99.90;;;;;;5056956;28;20449;-72
2023/08/15 05:39:11;;;;;;;8.23;2.55;;;21.40;99.90;;;;;;5068087;28;20377;-72
2023/08/15 05:41:37;;;;;;;8.98;2.92;;;21.40;99.90;;;;;;5066068;28;20443;-72
2023/08/15 05:44:03;;;;;;;6.97;2.67;;;21.40;99.90;;;;;;5069336;28;20115;-71
2023/08/15 05:46:28;;;;;;;5.72;2.47;;;21.40;99.90;;;;;;5067358;28;20021;-72
2023/08/15 05:48:54;;;;;;;9.00;2.80;;;21.50;99.90;;;;;;5068842;28;20036;-72
2023/08/15 05:51:19;;;;;;;8.10;2.40;;;21.40;99.90;;;;;;5066040;28;20021;-72
2023/08/15 05:53:45;;;;;;;4.63;2.30;;;21.50;99.90;;;;;;5068604;28;20023;-72
2023/08/15 05:56:11;;;;;;;10.02;2.47;;;21.50;99.90;;;;;;5067158;28;20032;-72
2023/08/15 05:58:36;;;;;;;9.27;2.47;;;21.50;99.90;;;;;;5067586;28;20095;-71
2023/08/15 06:01:02;;;;;;;8.77;3.10;;;21.60;99.90;;;;;;5066463;28;20098;-71
2023/08/15 06:03:28;;;;;;;6.45;2.95;;;21.60;99.90;;;;;;5067714;28;20020;-71
2023/08/15 06:05:56;;;;;;;7.65;2.58;;;21.60;99.90;;;;;;5043792;28;20021;-72
2023/08/15 06:08:21;;;;;;;8.32;2.88;;;21.60;99.90;;;;;;5058516;28;20025;-71
2023/08/15 06:10:47;;;;;;;7.43;2.70;;;21.70;99.90;;;;;;5057993;28;20025;-72
2023/08/15 06:13:13;;;;;;;7.25;2.53;;;21.70;99.90;;;;;;5058351;28;20033;-72
2023/08/15 06:15:38;;;;;;;5.97;2.95;;;21.70;99.90;;;;;;5062030;28;20064;-72
2023/08/15 06:18:04;;;;;;;8.32;2.58;;;21.70;99.90;;;;;;5058451;28;20051;-72
2023/08/15 06:20:30;;;;;;;7.97;2.70;;;21.80;99.90;;;;;;5055760;28;20032;-72
2023/08/15 06:22:55;;;;;;;6.25;2.65;;;21.90;99.90;;;;;;5051769;28;20100;-72
2023/08/15 06:25:21;;;;;;;6.00;2.53;;;22.00;99.90;;;;;;5045089;28;20082;-72
2023/08/15 06:27:47;;;;;;;5.13;2.55;;;22.20;99.90;;;;;;5057788;28;20029;-71
2023/08/15 06:30:13;;;;;;;6.57;2.90;;;22.20;99.90;;;;;;5061103;28;20013;-73
2023/08/15 06:32:38;;;;;;;5.63;2.30;;;22.40;99.90;;;;;;5057533;28;20025;-73
2023/08/15 06:35:05;;;;;;;9.70;2.88;;;22.40;99.90;;;;;;5061010;28;20549;-73
2023/08/15 06:37:31;;;;;;;8.18;2.47;;;22.40;99.90;;;;;;5059889;28;20032;-73
2023/08/15 06:39:57;;;;;;;6.38;2.60;;;22.50;99.90;;;;;;5064247;28;20020;-74
2023/08/15 06:42:23;;;;;;;7.25;2.58;;;22.50;99.90;;;;;;5061199;28;20029;-73
2023/08/15 06:44:48;;;;;;;5.80;2.30;;;22.60;99.90;;;;;;5064020;28;20031;-74
2023/08/15 06:47:14;;;;;;;7.00;2.28;;;22.70;99.90;;;;;;5061437;28;20116;-73
2023/08/15 06:49:40;;;;;;;7.15;2.28;;;22.80;99.90;;;;;;5063958;28;20107;-73
2023/08/15 06:52:07;;;;;;;8.60;2.92;;;22.80;99.90;;;;;;5059864;28;20033;-72
2023/08/15 06:54:33;;;;;;;7.93;2.30;;;22.80;99.90;;;;;;5060364;28;20392;-73
2023/08/15 06:56:58;;;;;;;7.95;2.42;;;22.70;99.90;;;;;;5057801;28;20477;-73
2023/08/15 06:59:24;;;;;;;8.07;2.28;;;22.60;99.90;;;;;;5068986;28;20125;-73
2023/08/15 07:01:53;;;;;;;9.50;3.22;;;22.60;99.90;;;;;;5067741;28;20033;-74
2023/08/15 07:04:19;;;;;;;4.65;2.22;;;22.60;99.90;;;;;;5070507;28;20029;-74
2023/08/15 07:06:45;;;;;;;5.97;2.42;;;22.50;99.90;;;;;;5073379;28;20024;-74
2023/08/15 07:09:11;;;;;;;8.70;2.70;;;22.50;99.90;;;;;;5061914;28;20021;-74
2023/08/15 07:11:37;;;;;;;4.38;2.65;;;22.40;99.90;;;;;;5059555;28;20450;-74
2023/08/15 07:14:03;;;;;;;9.10;2.60;;;22.40;99.90;;;;;;5061615;28;20025;-73
2023/08/15 07:16:28;;;;;;;9.88;2.88;;;22.40;99.90;;;;;;5069407;28;20021;-74
2023/08/15 07:18:54;;;;;;;13.73;3.53;;;22.40;99.90;;;;;;5075946;28;20116;-73
2023/08/15 07:21:20;;;;;;;3.78;2.47;;;22.30;99.90;;;;;;5071278;28;20457;-75
2023/08/15 07:23:45;;;;;;;4.55;2.53;;;22.20;99.90;;;;;;5073118;28;20489;-75
2023/08/15 07:26:11;;;;;;;10.20;3.20;;;22.10;99.90;;;;;;5072643;28;20694;-73
2023/08/15 07:28:37;;;;;;;14.18;4.32;;;22.10;99.90;;;;;;5058095;28;20275;-73
2023/08/15 07:31:03;;;;;;;10.98;3.17;;;22.10;99.90;;;;;;5069449;28;20023;-74
2023/08/15 07:33:29;;;;;;;9.68;2.83;;;22.10;99.90;;;;;;5070669;28;20036;-73
2023/08/15 07:35:54;;;;;;;10.52;3.22;;;22.30;99.90;;;;;;5062769;28;20029;-74
2023/08/15 07:38:20;;;;;;;6.60;2.75;;;22.40;99.90;;;;;;5067415;28;20024;-74
2023/08/15 07:40:47;;;;;;;6.68;3.03;;;22.50;99.90;;;;;;5064494;28;20081;-74
2023/08/15 07:43:13;;;;;;;6.00;2.80;;;22.40;99.90;;;;;;5065633;28;20557;-74
2023/08/15 07:45:39;;;;;;;10.52;2.45;;;22.60;99.90;;;;;;5065281;28;20451;-74
2023/08/15 07:48:05;;;;;;;5.38;2.65;;;22.70;99.90;;;;;;5067541;28;20031;-74
2023/08/15 07:50:31;;;;;;;6.47;2.67;;;22.70;99.90;;;;;;5063671;28;20025;-74
2023/08/15 07:53:00;;;;;;;11.25;3.22;;;22.60;99.90;;;;;;5070471;28;20074;-74
2023/08/15 07:55:30;;;;;;;6.90;2.55;;;22.60;99.90;;;;;;5064687;28;20024;-74
2023/08/15 07:57:56;;;;;;;;;;;22.60;99.90;;;;;;5069865;28;20029;-74
2023/08/15 08:00:22;;;;;;;11.15;2.83;;;22.70;99.90;;;;;;5067412;28;20700;-74
2023/08/15 08:02:48;;;;;;;7.97;2.70;;;22.80;99.90;;;;;;5059639;28;20075;-74
2023/08/15 08:05:15;;;;;;;5.70;2.40;;;22.80;99.90;;;;;;5047237;28;20033;-74
2023/08/15 08:07:43;;;;;;;8.40;2.72;;;22.70;99.90;;;;;;5060264;28;20113;-74
2023/08/15 08:10:09;;;;;;;9.88;2.70;;;22.70;99.90;;;;;;5073696;28;20024;-74
2023/08/15 08:12:35;;;;;;;7.45;2.78;;;22.70;99.90;;;;;;5045617;28;20036;-74
2023/08/15 08:15:01;;;;;;;11.68;3.25;;;22.90;99.90;;;;;;5057171;28;20032;-75
2023/08/15 08:17:27;;;;;;;7.63;2.53;;;23.00;99.90;;;;;;5057907;28;20021;-75
2023/08/15 08:19:53;;;;;;;6.38;3.22;;;23.20;99.90;;;;;;5056096;28;20047;-74
2023/08/15 08:22:19;;;;;;;6.68;3.15;;;23.30;99.90;;;;;;5057425;28;20115;-74
2023/08/15 08:24:45;;;;;;;6.97;2.58;;;23.50;99.90;;;;;;5056343;28;20120;-74
2023/08/15 08:27:11;;;;;;;6.38;2.60;;;23.50;99.90;;;;;;5059630;28;20723;-74
2023/08/15 08:29:36;;;;;;;7.22;3.00;;;23.70;99.90;;;;;;5056559;28;20029;-74
2023/08/15 08:32:02;;;;;;;13.23;3.05;;;23.70;99.90;;;;;;5055267;28;20017;-74
2023/08/15 08:34:28;;;;;;;7.53;2.40;;;23.60;99.90;;;;;;5052049;28;20071;-75
2023/08/15 08:36:53;;;;;;;12.80;3.22;;;23.70;99.90;;;;;;5053391;28;20065;-75
2023/08/15 08:39:19;;;;;;;12.30;3.53;;;23.70;99.90;;;;;;5056364;28;20056;-75
2023/08/15 08:41:45;;;;;;;8.98;3.22;;;23.60;99.90;;;;;;5050426;28;20520;-74
2023/08/15 08:44:12;;;;;;;13.60;4.45;;;23.70;99.90;;;;;;5057949;28;20108;-74
2023/08/15 08:46:39;;;;;;;5.68;2.60;;;23.70;99.90;;;;;;5056395;28;20508;-75
2023/08/15 08:49:07;;;;;;;6.60;2.60;;;23.80;99.90;;;;;;5056404;28;20485;-74
2023/08/15 08:51:33;;;;;;;10.13;3.30;;;23.80;99.90;;;;;;5046423;28;20713;-74
2023/08/15 08:53:59;;;;;;;9.77;2.92;;;23.90;99.90;;;;;;5024694;28;20088;-75
2023/08/15 08:56:27;;;;;;;7.88;3.08;;;24.00;99.90;;;;;;5056305;28;20519;-75
2023/08/15 08:59:01;;;;;;;13.77;2.90;;;24.20;99.90;;;;;;5062422;28;20028;-75
2023/08/15 09:01:31;;;;;;;8.98;2.65;;;24.40;99.90;;;;;;5053830;28;20025;-75
2023/08/15 09:03:57;;;;;;;9.90;3.42;;;24.60;99.90;;;;;;5053974;28;20053;-75
2023/08/15 09:06:26;;;;;;;5.28;2.80;;;25.00;99.90;;;;;;5059992;28;20096;-75
2023/08/15 09:08:52;;;;;;;7.30;3.13;;;24.90;99.90;;;;;;5050571;28;20477;-75
2023/08/15 09:11:19;;;;;;;10.63;2.67;;;25.00;99.90;;;;;;5052452;28;20036;-75
2023/08/15 09:13:49;;;;;;;11.75;3.30;;;25.00;99.90;;;;;;5057079;28;20075;-75
2023/08/15 09:16:15;;;;;;;6.78;2.80;;;25.30;99.90;;;;;;5055198;28;20132;-75
2023/08/15 09:18:42;;;;;;;6.85;2.85;;;25.50;99.90;;;;;;5055985;28;20025;-74
2023/08/15 09:21:07;;;;;;;9.05;2.58;;;25.70;99.90;;;;;;5054527;28;20025;-74
2023/08/15 09:23:33;;;;;;;11.65;3.17;;;25.60;99.90;;;;;;5054981;28;20041;-74
2023/08/15 09:26:14;;;;;;;7.50;2.80;;;25.60;99.90;;;;;;5053305;28;20035;-75
2023/08/15 09:28:44;;;;;;;7.80;2.97;;;25.70;99.90;;;;;;5059872;28;20017;-74
2023/08/15 09:31:11;;;;;;;12.77;3.08;;;25.70;99.90;;;;;;5056674;28;20033;-74
2023/08/15 09:33:41;;;;;;;7.03;2.97;;;25.60;99.90;;;;;;5055634;28;20022;-74
2023/08/15 09:36:10;;;;;;;5.75;2.15;;;25.60;99.90;;;;;;5057772;28;20025;-73
2023/08/15 09:38:36;;;;;;;7.75;2.80;;;25.60;99.90;;;;;;5056552;28;20057;-74
2023/08/15 09:41:02;;;;;;;8.30;3.22;;;25.50;99.90;;;;;;5051443;28;20024;-73
2023/08/15 09:43:29;;;;;;;8.30;2.58;;;25.60;99.90;;;;;;5053526;28;20492;-74
2023/08/15 09:45:59;;;;;;;5.97;2.70;;;25.80;99.90;;;;;;5055360;28;20025;-74
2023/08/15 09:48:28;;;;;;;6.35;2.67;;;26.10;99.90;;;;;;5050258;28;20508;-74
2023/08/15 09:50:57;;;;;;;10.27;4.05;;;26.30;99.90;;;;;;5060603;28;20060;-73
2023/08/15 09:53:24;;;;;;;7.97;2.80;;;26.40;99.90;;;;;;5052151;28;20021;-74
2023/08/15 09:55:50;;;;;;;9.82;2.83;;;26.60;99.90;;;;;;5053056;28;20033;-73
2023/08/15 09:58:19;;;;;;;5.05;2.10;;;26.70;99.90;;;;;;5060234;28;20589;-74
2023/08/15 10:00:51;;;;;;;4.55;2.38;;;26.70;99.90;;;;;;5055492;28;20408;-75
2023/08/15 10:03:24;;;;;;;6.70;3.03;;;26.90;99.90;;;;;;5052268;28;20567;-74
2023/08/15 10:05:54;;;;;;;6.55;2.60;;;27.20;99.90;;;;;;5057940;28;20056;-75
2023/08/15 10:08:20;;;;;;;7.40;2.37;;;27.30;99.90;;;;;;5056509;28;20075;-75
2023/08/15 10:10:51;;;;;;;7.97;2.38;;;27.40;99.90;;;;;;5044440;28;20491;-73
2023/08/15 10:13:20;;;;;;;7.65;3.50;;;27.00;99.90;;;;;;5051792;28;20066;-74
2023/08/15 10:15:46;;;;;;;9.63;2.95;;;27.00;99.90;;;;;;5057855;28;20086;-74
2023/08/15 10:18:12;;;;;;;5.25;2.22;;;26.80;99.90;;;;;;5060514;28;20580;-74
2023/08/15 10:20:39;;;;;;;8.60;3.25;;;26.80;99.90;;;;;;5059923;28;20124;-74
2023/08/15 10:23:10;;;;;;;6.57;2.63;;;26.70;99.90;;;;;;5058845;28;20048;-74
2023/08/15 10:25:41;;;;;;;6.80;2.60;;;26.30;99.90;;;;;;5058288;28;20033;-74
2023/08/15 10:28:11;;;;;;;9.45;4.57;;;26.30;99.90;;;;;;5061508;28;20036;-74
2023/08/15 10:30:41;;;;;;;9.98;2.75;;;26.80;99.90;;;;;;5058265;28;20595;-74
2023/08/15 10:33:16;;;;;;;4.05;2.30;;;27.30;99.90;;;;;;5057273;28;20021;-75
2023/08/15 10:35:54;;;;;;;6.55;2.53;;;27.60;99.90;;;;;;5056423;28;20033;-75
2023/08/15 10:38:30;;;;;;;8.57;3.13;;;27.80;99.90;;;;;;5057032;28;20031;-73
2023/08/15 10:41:03;;;;;;;7.15;2.97;;;27.40;99.90;;;;;;5064108;28;20055;-75
2023/08/15 10:43:31;;;;;;;5.60;2.80;;;27.30;99.90;;;;;;5055029;28;20032;-74
2023/08/15 10:45:59;;;;;;;5.78;2.53;;;27.20;99.90;;;;;;5060180;28;20028;-73
2023/08/15 10:48:50;;;;;;;5.95;3.33;;;27.20;99.90;;;;;;5061045;28;20048;-73
2023/08/15 10:51:26;;;;;;;9.20;2.63;;;27.10;99.90;;;;;;5054952;28;20024;-73
2023/08/15 10:53:53;;;;;;;8.10;3.08;;;27.20;99.90;;;;;;5058609;28;20025;-73
2023/08/15 10:56:22;;;;;;;6.97;2.78;;;27.30;99.90;;;;;;5061540;28;20029;-73
2023/08/15 10:58:49;;;;;;;6.55;3.00;;;27.60;99.90;;;;;;5059345;28;20024;-73
2023/08/15 11:01:18;;;;;;;5.10;2.97;;;27.80;99.90;;;;;;5059638;28;20033;-75
2023/08/15 11:03:47;;;;;;;3.72;2.58;;;28.20;99.90;;;;;;5059275;28;20039;-74
2023/08/15 11:06:13;;;;;;;5.95;3.30;;;28.10;99.90;;;;;;5057838;28;20032;-73
2023/08/15 11:08:48;;;;;;;7.15;2.58;;;28.40;99.90;;;;;;5059420;28;20472;-75
2023/08/15 11:11:14;;;;;;;9.70;3.10;;;28.60;99.90;;;;;;5056554;28;20028;-74
2023/08/15 11:13:42;;;;;;;4.78;2.80;;;28.70;99.90;;;;;;5059215;28;20448;-73
2023/08/15 11:16:08;;;;;;;9.15;3.17;;;28.80;99.90;;;;;;5058634;28;20028;-74
2023/08/15 11:18:36;;;;;;;9.43;2.58;;;28.70;99.90;;;;;;5056482;28;20059;-75
2023/08/15 11:21:02;;;;;;;6.43;3.08;;;28.80;99.90;;;;;;5057963;28;20039;-76
2023/08/15 11:23:29;;;;;;;7.35;3.13;;;28.80;99.90;;;;;;5059421;28;20075;-73
2023/08/15 11:26:08;;;;;;;5.82;3.08;;;28.90;99.90;;;;;;5059726;28;20109;-73
2023/08/15 11:28:34;;;;;;;7.55;3.10;;;29.00;99.90;;;;;;5053838;28;20055;-74
2023/08/15 11:31:06;;;;;;;4.75;2.78;;;29.20;99.90;;;;;;5059323;28;20021;-73
2023/08/15 11:33:32;;;;;;;5.50;2.85;;;29.30;99.90;;;;;;5058619;28;20017;-74
2023/08/15 11:36:06;;;;;;;6.38;2.55;;;29.50;99.90;;;;;;5056908;28;20040;-74
2023/08/15 11:38:35;;;;;;;5.32;2.40;;;29.80;99.90;;;;;;5059209;28;20024;-73
2023/08/15 11:41:02;;;;;;;8.00;3.25;;;29.90;99.90;;;;;;5057898;28;20104;-74
2023/08/15 11:43:29;;;;;;;8.27;2.72;;;29.80;99.90;;;;;;5055907;28;20044;-74
2023/08/15 11:45:55;;;;;;;8.10;3.08;;;29.90;99.90;;;;;;5055351;28;20021;-75
2023/08/15 11:48:20;;;;;;;6.50;2.47;;;30.10;99.90;;;;;;5057225;28;20025;-74
2023/08/15 11:50:47;;;;;;;6.80;2.88;;;30.20;99.90;;;;;;5057849;28;20429;-73
2023/08/15 11:53:17;;;;;;;5.22;3.42;;;30.20;99.90;;;;;;5055399;28;20075;-74
2023/08/15 11:55:44;;;;;;;4.15;2.60;;;30.40;99.90;;;;;;5061189;28;20020;-75
2023/08/15 11:58:25;;;;;;;5.10;2.78;;;30.40;99.90;;;;;;5056160;28;20059;-74
2023/08/15 12:00:55;;;;;;;15.13;3.50;;;30.30;99.90;;;;;;5057494;28;20028;-75
2023/08/15 12:03:20;;;;;;;7.30;2.97;;;30.20;99.90;;;;;;5057567;28;20021;-74
2023/08/15 12:05:50;;;;;;;6.53;3.20;;;29.80;99.90;;;;;;5057741;28;20439;-75
2023/08/15 12:08:16;;;;;;;7.88;3.30;;;30.10;99.90;;;;;;5059633;28;20090;-74
2023/08/15 12:10:43;;;;;;;7.32;2.95;;;30.30;99.90;;;;;;5058583;28;20028;-74
2023/08/15 12:13:10;;;;;;;4.72;2.33;;;30.30;99.90;;;;;;5057966;28;20012;-74
2023/08/15 12:15:35;;;;;;;6.93;2.90;;;30.50;99.90;;;;;;5059533;28;20032;-75
2023/08/15 12:18:01;;;;;;;7.20;3.83;;;30.30;99.90;;;;;;5060075;28;20029;-75
2023/08/15 12:20:27;;;;;;;5.47;2.70;;;30.30;99.90;;;;;;5054252;28;20032;-76
2023/08/15 12:22:53;;;;;;;5.93;2.78;;;30.20;99.90;;;;;;5056034;28;20029;-72
2023/08/15 12:25:18;;;;;;;4.50;3.17;;;30.60;99.90;;;;;;5057740;28;20071;-75
2023/08/15 12:27:44;;;;;;;50.88;31.30;;;30.90;99.90;;;;;;5057328;28;20020;-74
2023/08/15 12:30:10;;;;;;;6.50;3.92;;;31.20;99.90;;;;;;5058806;28;20032;-75
2023/08/15 12:32:36;;;;;;;7.05;2.92;;;31.40;99.90;;;;;;5052694;28;20025;-73
2023/08/15 12:35:01;;;;;;;7.13;2.85;;;31.20;99.90;;;;;;5056225;28;20484;-74
2023/08/15 12:37:27;;;;;;;5.63;2.85;;;31.60;99.90;;;;;;5055893;28;20098;-75
2023/08/15 12:39:53;;;;;;;5.30;3.10;;;31.60;99.90;;;;;;5056571;28;20106;-76
2023/08/15 12:42:18;;;;;;;6.03;3.00;;;31.70;99.90;;;;;;5052621;28;20025;-75
2023/08/15 12:44:44;;;;;;;5.00;2.70;;;32.00;99.90;;;;;;5058109;28;20029;-74